Time;durP1;ratioP1;P1;durP2;ratioP2;P2;SDS_P1;SDS_P2;PMS_P1;PMS_P2;Temp;Humidity;BMP_temperature;BMP_pressure;BME280_temperature;BME280_humidity;BME280_pressure;Samples;Min_cycle;Max_cycle;Signal;HPM_P1;HPM_P2
2023/03/17 00:01:36;;;;;;;113.50;34.80;;;;;;;-128.00;-1.00;-1.00;18487;285;7504661;-34
2023/03/17 00:04:02;;;;;;;145.80;42.60;;;;;;;-128.00;-1.00;-1.00;18470;296;7506176;-29
2023/03/17 00:06:29;;;;;;;98.10;35.50;;;;;;;-128.00;-1.00;-1.00;18875;285;7504405;-35
2023/03/17 00:08:56;;;;;;;106.90;32.60;;;;;;;-128.00;-1.00;-1.00;18481;285;7505310;-33
2023/03/17 00:11:21;;;;;;;88.80;26.60;;;;;;;-128.00;-1.00;-1.00;18463;296;7506298;-33
2023/03/17 00:13:47;;;;;;;50.80;21.90;;;;;;;-128.00;-1.00;-1.00;18475;297;7506077;-33
2023/03/17 00:16:18;;;;;;;80.00;39.50;;;;;;;-128.00;-1.00;-1.00;18428;348;7505805;-34
2023/03/17 00:18:44;;;;;;;60.00;24.30;;;;;;;-128.00;-1.00;-1.00;18493;285;7506181;-30
2023/03/17 00:21:12;;;;;;;109.70;52.90;;;;;;;-128.00;-1.00;-1.00;18462;348;7505995;-34
2023/03/17 00:23:38;;;;;;;62.30;22.70;;;;;;;-128.00;-1.00;-1.00;18476;297;7504760;-34
2023/03/17 00:26:04;;;;;;;66.00;20.90;;;;;;;-128.00;-1.00;-1.00;18452;297;7505282;-34
2023/03/17 00:28:29;;;;;;;55.70;19.10;;;;;;;-128.00;-1.00;-1.00;18480;289;7504482;-31
2023/03/17 00:30:57;;;;;;;46.70;18.70;;;;;;;-128.00;-1.00;-1.00;18868;296;7504389;-30
2023/03/17 00:33:25;;;;;;;60.10;19.10;;;;;;;-128.00;-1.00;-1.00;18474;289;7504899;-30
2023/03/17 00:35:51;;;;;;;45.40;18.90;;;;;;;-128.00;-1.00;-1.00;18467;297;7504858;-29
2023/03/17 00:38:19;;;;;;;43.70;17.70;;;;;;;-128.00;-1.00;-1.00;18454;297;7504924;-29
2023/03/17 00:40:45;;;;;;;249.50;72.90;;;;;;;-128.00;-1.00;-1.00;18459;289;7504530;-33
2023/03/17 00:43:11;;;;;;;115.80;34.40;;;;;;;-128.00;-1.00;-1.00;18468;297;7504329;-30
2023/03/17 00:45:38;;;;;;;89.00;24.00;;;;;;;-128.00;-1.00;-1.00;18482;295;7506123;-30
2023/03/17 00:48:16;;;;;;;78.20;21.80;;;;;;;-128.00;-1.00;-1.00;18459;348;7505200;-29
2023/03/17 00:50:42;;;;;;;58.60;19.50;;;;;;;-128.00;-1.00;-1.00;18461;295;7504431;-30
2023/03/17 00:53:11;;;;;;;107.90;33.00;;;;;;;-128.00;-1.00;-1.00;18469;296;7504758;-30
2023/03/17 00:55:36;;;;;;;131.20;38.80;;;;;;;-128.00;-1.00;-1.00;18486;296;7504907;-30
2023/03/17 00:58:09;;;;;;;118.00;36.80;;;;;;;-128.00;-1.00;-1.00;18481;295;7506030;-34
2023/03/17 01:00:35;;;;;;;110.10;30.70;;;;;;;-128.00;-1.00;-1.00;18467;347;7506245;-34
2023/03/17 01:03:01;;;;;;;77.10;28.20;;;;;;;-128.00;-1.00;-1.00;18453;308;7504213;-30
2023/03/17 01:05:27;;;;;;;72.60;28.60;;;;;;;-128.00;-1.00;-1.00;18473;348;7506819;-33
2023/03/17 01:07:53;;;;;;;110.80;44.90;;;;;;;-128.00;-1.00;-1.00;18469;297;7505596;-34
2023/03/17 01:10:22;;;;;;;86.80;31.10;;;;;;;-128.00;-1.00;-1.00;18459;297;7504498;-33
2023/03/17 01:12:48;;;;;;;99.50;24.80;;;;;;;-128.00;-1.00;-1.00;18492;284;7506004;-30
2023/03/17 01:15:14;;;;;;;101.10;28.20;;;;;;;-128.00;-1.00;-1.00;18482;288;7504551;-30
2023/03/17 01:17:40;;;;;;;97.20;24.90;;;;;;;-128.00;-1.00;-1.00;18477;295;7504471;-29
2023/03/17 01:20:06;;;;;;;49.10;20.70;;;;;;;-128.00;-1.00;-1.00;18511;288;7504594;-29
2023/03/17 01:22:32;;;;;;;64.60;23.50;;;;;;;-128.00;-1.00;-1.00;18455;297;7504944;-33
2023/03/17 01:24:58;;;;;;;53.50;19.90;;;;;;;-128.00;-1.00;-1.00;18873;288;7505921;-29
2023/03/17 01:27:24;;;;;;;51.10;18.80;;;;;;;-128.00;-1.00;-1.00;18870;340;7506035;-29
2023/03/17 01:29:54;;;;;;;54.80;19.50;;;;;;;-128.00;-1.00;-1.00;18895;295;7504747;-31
2023/03/17 01:32:21;;;;;;;59.50;18.20;;;;;;;-128.00;-1.00;-1.00;18463;303;7505574;-33
2023/03/17 01:34:46;;;;;;;85.90;25.40;;;;;;;-128.00;-1.00;-1.00;18476;288;7504292;-31
2023/03/17 01:37:13;;;;;;;71.10;18.80;;;;;;;-128.00;-1.00;-1.00;18871;288;7504478;-34
2023/03/17 01:39:40;;;;;;;57.00;16.50;;;;;;;-128.00;-1.00;-1.00;18476;295;7506405;-33
2023/03/17 01:42:06;;;;;;;52.10;18.10;;;;;;;-128.00;-1.00;-1.00;18466;296;7506025;-29
2023/03/17 01:44:31;;;;;;;40.70;13.50;;;;;;;-128.00;-1.00;-1.00;18447;336;7506346;-28
2023/03/17 01:46:57;;;;;;;55.80;17.50;;;;;;;-128.00;-1.00;-1.00;18893;288;7504419;-28
2023/03/17 01:49:27;;;;;;;52.40;18.30;;;;;;;-128.00;-1.00;-1.00;18862;295;7504732;-29
2023/03/17 01:52:04;;;;;;;35.00;14.50;;;;;;;-128.00;-1.00;-1.00;18461;295;7504422;-33
2023/03/17 01:54:35;;;;;;;39.40;15.90;;;;;;;-128.00;-1.00;-1.00;18459;295;7505909;-33
2023/03/17 01:57:06;;;;;;;50.40;15.10;;;;;;;-128.00;-1.00;-1.00;18460;296;7505489;-34
2023/03/17 01:59:33;;;;;;;58.40;21.70;;;;;;;-128.00;-1.00;-1.00;18471;296;7505990;-34
2023/03/17 02:02:02;;;;;;;51.10;19.20;;;;;;;-128.00;-1.00;-1.00;18439;348;7504633;-30
2023/03/17 02:04:28;;;;;;;59.30;18.90;;;;;;;-128.00;-1.00;-1.00;18456;295;7504269;-34
2023/03/17 02:06:55;;;;;;;61.10;19.50;;;;;;;-128.00;-1.00;-1.00;18896;295;7504990;-34
2023/03/17 02:09:21;;;;;;;43.80;17.50;;;;;;;-128.00;-1.00;-1.00;18471;295;7504656;-29
2023/03/17 02:11:47;;;;;;;57.50;17.50;;;;;;;-128.00;-1.00;-1.00;18866;305;7505110;-30
2023/03/17 02:14:13;;;;;;;51.10;17.20;;;;;;;-128.00;-1.00;-1.00;18495;296;7504607;-31
2023/03/17 02:16:39;;;;;;;45.60;15.20;;;;;;;-128.00;-1.00;-1.00;18467;288;7506379;-34
2023/03/17 02:19:05;;;;;;;32.30;14.80;;;;;;;-128.00;-1.00;-1.00;18476;288;7505802;-34
2023/03/17 02:21:44;;;;;;;50.60;15.60;;;;;;;-128.00;-1.00;-1.00;18446;297;7504646;-29
2023/03/17 02:24:20;;;;;;;42.10;14.80;;;;;;;-128.00;-1.00;-1.00;18467;348;7506224;-33
2023/03/17 02:26:46;;;;;;;47.80;16.50;;;;;;;-128.00;-1.00;-1.00;18485;347;7504594;-28
2023/03/17 02:29:12;;;;;;;44.00;15.90;;;;;;;-128.00;-1.00;-1.00;18487;295;7505253;-33
2023/03/17 02:31:38;;;;;;;42.20;14.30;;;;;;;-128.00;-1.00;-1.00;18473;295;7506109;-33
2023/03/17 02:34:04;;;;;;;32.30;15.10;;;;;;;-128.00;-1.00;-1.00;18470;296;7504932;-34
2023/03/17 02:36:30;;;;;;;31.70;11.70;;;;;;;-128.00;-1.00;-1.00;18486;295;7506273;-30
2023/03/17 02:38:56;;;;;;;46.00;18.90;;;;;;;-128.00;-1.00;-1.00;18485;296;7504614;-33
2023/03/17 02:41:23;;;;;;;62.60;20.30;;;;;;;-128.00;-1.00;-1.00;18488;288;7504612;-29
2023/03/17 02:43:48;;;;;;;52.30;21.50;;;;;;;-128.00;-1.00;-1.00;18488;336;7504584;-33
2023/03/17 02:46:14;;;;;;;55.40;27.00;;;;;;;-128.00;-1.00;-1.00;18437;332;7506195;-33
2023/03/17 02:48:40;;;;;;;50.40;20.10;;;;;;;-128.00;-1.00;-1.00;18483;288;7505754;-32
2023/03/17 02:51:06;;;;;;;58.30;19.10;;;;;;;-128.00;-1.00;-1.00;18470;295;7505589;-34
2023/03/17 02:53:32;;;;;;;48.00;18.20;;;;;;;-128.00;-1.00;-1.00;18859;295;7504869;-30
2023/03/17 02:55:58;;;;;;;61.90;20.80;;;;;;;-128.00;-1.00;-1.00;18876;304;7505255;-34
2023/03/17 02:58:24;;;;;;;61.10;24.10;;;;;;;-128.00;-1.00;-1.00;18852;297;7504789;-28
2023/03/17 03:00:52;;;;;;;58.40;20.20;;;;;;;-128.00;-1.00;-1.00;18932;295;7505029;-31
2023/03/17 03:03:17;;;;;;;35.40;18.30;;;;;;;-128.00;-1.00;-1.00;18483;284;7504604;-29
2023/03/17 03:05:44;;;;;;;43.30;20.00;;;;;;;-128.00;-1.00;-1.00;18879;296;7504408;-34
2023/03/17 03:08:10;;;;;;;42.90;16.20;;;;;;;-128.00;-1.00;-1.00;18496;295;7504696;-31
2023/03/17 03:10:36;;;;;;;51.10;21.30;;;;;;;-128.00;-1.00;-1.00;18878;296;7505328;-30
2023/03/17 03:13:02;;;;;;;43.30;20.10;;;;;;;-128.00;-1.00;-1.00;18466;296;7505747;-32
2023/03/17 03:15:28;;;;;;;48.60;21.10;;;;;;;-128.00;-1.00;-1.00;18891;296;7504287;-33
2023/03/17 03:17:54;;;;;;;48.20;18.80;;;;;;;-128.00;-1.00;-1.00;18874;311;7504372;-33
2023/03/17 03:20:20;;;;;;;73.60;24.90;;;;;;;-128.00;-1.00;-1.00;18860;288;7504681;-30
2023/03/17 03:22:47;;;;;;;79.70;30.80;;;;;;;-128.00;-1.00;-1.00;18867;348;7505000;-30
2023/03/17 03:25:13;;;;;;;58.30;27.30;;;;;;;-128.00;-1.00;-1.00;18865;296;7504706;-29
2023/03/17 03:27:39;;;;;;;64.90;28.30;;;;;;;-128.00;-1.00;-1.00;18898;288;7505278;-29
2023/03/17 03:30:07;;;;;;;47.00;23.60;;;;;;;-128.00;-1.00;-1.00;18869;296;7504568;-30
2023/03/17 03:32:33;;;;;;;73.40;27.20;;;;;;;-128.00;-1.00;-1.00;18471;288;7504548;-33
2023/03/17 03:34:59;;;;;;;56.10;21.80;;;;;;;-128.00;-1.00;-1.00;18471;307;7505487;-30
2023/03/17 03:37:25;;;;;;;52.20;20.70;;;;;;;-128.00;-1.00;-1.00;18487;312;7504526;-34
2023/03/17 03:39:51;;;;;;;55.70;23.10;;;;;;;-128.00;-1.00;-1.00;18486;288;7505516;-34
2023/03/17 03:42:17;;;;;;;72.10;24.60;;;;;;;-128.00;-1.00;-1.00;18483;296;7504947;-34
2023/03/17 03:44:43;;;;;;;43.90;20.50;;;;;;;-128.00;-1.00;-1.00;18480;297;7504766;-31
2023/03/17 03:47:09;;;;;;;54.00;20.10;;;;;;;-128.00;-1.00;-1.00;18850;348;7504177;-31
2023/03/17 03:49:35;;;;;;;72.40;21.10;;;;;;;-128.00;-1.00;-1.00;18885;288;7506462;-30
2023/03/17 03:52:01;;;;;;;58.50;20.60;;;;;;;-128.00;-1.00;-1.00;18886;296;7505807;-30
2023/03/17 03:54:27;;;;;;;56.70;21.10;;;;;;;-128.00;-1.00;-1.00;18861;337;7504626;-30
2023/03/17 03:56:53;;;;;;;43.00;19.70;;;;;;;-128.00;-1.00;-1.00;18882;296;7505112;-29
2023/03/17 03:59:20;;;;;;;51.20;19.90;;;;;;;-128.00;-1.00;-1.00;18872;296;7504657;-32
2023/03/17 04:01:46;;;;;;;58.20;19.60;;;;;;;-128.00;-1.00;-1.00;18501;296;7504657;-34
2023/03/17 04:04:12;;;;;;;66.60;29.00;;;;;;;-128.00;-1.00;-1.00;18483;296;7504283;-32
2023/03/17 04:06:38;;;;;;;73.90;30.00;;;;;;;-128.00;-1.00;-1.00;18876;296;7505690;-34
2023/03/17 04:09:05;;;;;;;77.20;27.80;;;;;;;-128.00;-1.00;-1.00;18859;297;7504675;-32
2023/03/17 04:11:31;;;;;;;58.30;28.00;;;;;;;-128.00;-1.00;-1.00;18466;303;7507512;-31
2023/03/17 04:13:57;;;;;;;56.90;24.60;;;;;;;-128.00;-1.00;-1.00;18469;296;7505216;-36
2023/03/17 04:16:22;;;;;;;54.70;16.60;;;;;;;-128.00;-1.00;-1.00;18473;296;7505934;-31
2023/03/17 04:18:48;;;;;;;57.40;22.50;;;;;;;-128.00;-1.00;-1.00;18462;288;7505842;-29
2023/03/17 04:21:17;;;;;;;64.40;25.20;;;;;;;-128.00;-1.00;-1.00;18498;296;7504625;-33
2023/03/17 04:23:43;;;;;;;48.00;17.40;;;;;;;-128.00;-1.00;-1.00;18451;288;7504413;-31
2023/03/17 04:26:10;;;;;;;60.80;20.90;;;;;;;-128.00;-1.00;-1.00;18477;295;7504663;-32
2023/03/17 04:28:35;;;;;;;55.70;20.90;;;;;;;-128.00;-1.00;-1.00;18437;295;7505836;-32
2023/03/17 04:31:02;;;;;;;52.60;20.60;;;;;;;-128.00;-1.00;-1.00;18473;336;7504285;-30
2023/03/17 04:33:28;;;;;;;54.10;21.60;;;;;;;-128.00;-1.00;-1.00;18882;295;7504712;-33
2023/03/17 04:35:54;;;;;;;56.60;23.60;;;;;;;-128.00;-1.00;-1.00;18904;295;7506118;-33
2023/03/17 05:15:20;;;;;;;66.60;24.10;;;;;;;-103.00;18.44;19993.38;31401;295;8045905;-32
2023/03/17 05:17:48;;;;;;;61.20;21.50;;;;;;;-128.00;-1.00;-1.00;54439;297;4504312;-31
2023/03/17 05:20:14;;;;;;;62.20;27.30;;;;;;;-128.00;-1.00;-1.00;19428;295;7504660;-31
2023/03/17 05:22:40;;;;;;;68.10;24.60;;;;;;;-128.00;-1.00;-1.00;18907;295;7505173;-33
2023/03/17 05:25:07;;;;;;;60.90;26.60;;;;;;;-128.00;-1.00;-1.00;18880;297;7505464;-35
2023/03/17 05:27:33;;;;;;;61.00;22.50;;;;;;;-128.00;-1.00;-1.00;18854;295;7504551;-29
2023/03/17 05:29:59;;;;;;;71.40;22.70;;;;;;;-128.00;-1.00;-1.00;18869;297;7504886;-29
2023/03/17 05:32:25;;;;;;;56.70;25.60;;;;;;;-128.00;-1.00;-1.00;18858;295;7504867;-33
2023/03/17 05:34:52;;;;;;;66.40;23.80;;;;;;;-128.00;-1.00;-1.00;18922;285;7505353;-30
2023/03/17 05:37:18;;;;;;;58.40;24.70;;;;;;;-128.00;-1.00;-1.00;18860;342;7506413;-33
2023/03/17 05:39:44;;;;;;;67.00;25.50;;;;;;;-128.00;-1.00;-1.00;18888;295;7504645;-34
2023/03/17 05:42:10;;;;;;;65.50;24.50;;;;;;;-128.00;-1.00;-1.00;18880;322;7504876;-33
2023/03/17 05:44:37;;;;;;;51.00;22.80;;;;;;;-128.00;-1.00;-1.00;18884;288;7504073;-31
2023/03/17 05:47:03;;;;;;;66.00;26.00;;;;;;;-128.00;-1.00;-1.00;18890;295;7505430;-33
2023/03/17 05:49:30;;;;;;;66.80;25.20;;;;;;;-128.00;-1.00;-1.00;18892;289;7504968;-31
2023/03/17 05:51:56;;;;;;;59.20;21.80;;;;;;;-128.00;-1.00;-1.00;18505;295;7504859;-33
2023/03/17 05:54:22;;;;;;;56.50;22.10;;;;;;;-128.00;-1.00;-1.00;18488;295;7505375;-34
2023/03/17 05:56:49;;;;;;;54.20;20.90;;;;;;;-128.00;-1.00;-1.00;18477;295;7506615;-35
2023/03/17 05:59:17;;;;;;;54.80;21.60;;;;;;;-128.00;-1.00;-1.00;18473;339;7505782;-32
2023/03/17 06:01:42;;;;;;;79.60;25.30;;;;;;;-128.00;-1.00;-1.00;18466;295;7504668;-31
2023/03/17 06:04:09;;;;;;;45.00;18.30;;;;;;;-128.00;-1.00;-1.00;18489;295;7504839;-35
2023/03/17 06:06:35;;;;;;;57.00;21.40;;;;;;;-128.00;-1.00;-1.00;18481;283;7506029;-36
2023/03/17 06:09:00;;;;;;;55.60;21.20;;;;;;;-128.00;-1.00;-1.00;18503;295;7504388;-30
2023/03/17 06:11:26;;;;;;;48.80;19.30;;;;;;;-128.00;-1.00;-1.00;18486;303;7506357;-34
2023/03/17 06:13:52;;;;;;;57.70;22.70;;;;;;;-128.00;-1.00;-1.00;18488;295;7506002;-32
2023/03/17 06:16:18;;;;;;;50.90;17.40;;;;;;;-128.00;-1.00;-1.00;18469;296;7505134;-34
2023/03/17 06:18:44;;;;;;;67.10;20.00;;;;;;;-128.00;-1.00;-1.00;18467;307;7504400;-30
2023/03/17 06:21:11;;;;;;;51.10;20.50;;;;;;;-128.00;-1.00;-1.00;18490;295;7505974;-33
2023/03/17 06:23:37;;;;;;;49.90;18.20;;;;;;;-128.00;-1.00;-1.00;18480;347;7504641;-31
2023/03/17 06:26:03;;;;;;;42.20;18.20;;;;;;;-128.00;-1.00;-1.00;18489;295;7504296;-34
2023/03/17 06:28:29;;;;;;;46.40;18.70;;;;;;;-128.00;-1.00;-1.00;18469;294;7505124;-35
2023/03/17 06:30:55;;;;;;;48.40;18.30;;;;;;;-128.00;-1.00;-1.00;18459;294;7504573;-31
2023/03/17 06:33:20;;;;;;;36.20;16.00;;;;;;;-128.00;-1.00;-1.00;18511;295;7504700;-31
2023/03/17 06:35:46;;;;;;;45.10;15.80;;;;;;;-128.00;-1.00;-1.00;18497;295;7504165;-28
2023/03/17 06:38:12;;;;;;;45.70;20.20;;;;;;;-128.00;-1.00;-1.00;18888;303;7504683;-31
2023/03/17 06:40:38;;;;;;;46.70;19.00;;;;;;;-128.00;-1.00;-1.00;18870;297;7505104;-32
2023/03/17 06:43:04;;;;;;;52.90;21.60;;;;;;;-128.00;-1.00;-1.00;18898;294;7504599;-33
2023/03/17 06:45:34;;;;;;;42.40;18.70;;;;;;;-128.00;-1.00;-1.00;18859;294;7505401;-33
2023/03/17 06:48:00;;;;;;;39.20;16.20;;;;;;;-128.00;-1.00;-1.00;18439;296;7505357;-35
2023/03/17 06:50:26;;;;;;;36.90;16.80;;;;;;;-128.00;-1.00;-1.00;18469;295;7505045;-29
2023/03/17 06:52:51;;;;;;;46.00;17.50;;;;;;;-128.00;-1.00;-1.00;18481;294;7505990;-31
2023/03/17 06:55:17;;;;;;;40.40;18.20;;;;;;;-128.00;-1.00;-1.00;18468;297;7504416;-31
2023/03/17 06:57:43;;;;;;;35.70;17.40;;;;;;;-128.00;-1.00;-1.00;18484;295;7505257;-29
2023/03/17 07:00:12;;;;;;;38.70;18.90;;;;;;;-128.00;-1.00;-1.00;18460;287;7505309;-29
2023/03/17 07:02:39;;;;;;;48.50;17.10;;;;;;;-128.00;-1.00;-1.00;18459;295;7504899;-29
2023/03/17 07:05:06;;;;;;;43.60;18.90;;;;;;;-128.00;-1.00;-1.00;18475;295;7504444;-33
2023/03/17 07:07:34;;;;;;;38.80;17.30;;;;;;;-128.00;-1.00;-1.00;18447;347;7504792;-34
2023/03/17 07:10:00;;;;;;;44.60;18.40;;;;;;;-128.00;-1.00;-1.00;18494;296;7504203;-30
2023/03/17 07:12:26;;;;;;;39.80;15.60;;;;;;;-128.00;-1.00;-1.00;18479;295;7505943;-30
2023/03/17 07:14:51;;;;;;;43.40;15.90;;;;;;;-128.00;-1.00;-1.00;18464;294;7506842;-30
2023/03/17 07:17:18;;;;;;;43.90;16.90;;;;;;;-128.00;-1.00;-1.00;18452;295;7505214;-33
2023/03/17 07:19:45;;;;;;;60.70;20.80;;;;;;;-128.00;-1.00;-1.00;18475;335;7505640;-30
2023/03/17 07:22:11;;;;;;;51.40;20.90;;;;;;;-128.00;-1.00;-1.00;18461;346;7505108;-34
2023/03/17 07:24:37;;;;;;;42.80;15.60;;;;;;;-128.00;-1.00;-1.00;18475;299;7506207;-30
2023/03/17 07:27:02;;;;;;;50.60;16.50;;;;;;;-128.00;-1.00;-1.00;18448;288;7505409;-29
2023/03/17 07:29:28;;;;;;;36.60;14.60;;;;;;;-128.00;-1.00;-1.00;18475;295;7505822;-30
2023/03/17 07:31:54;;;;;;;24.80;10.30;;;;;;;-128.00;-1.00;-1.00;18464;298;7505977;-31
2023/03/17 07:34:21;;;;;;;24.50;11.60;;;;;;;-128.00;-1.00;-1.00;18468;320;7505463;-34
2023/03/17 07:36:46;;;;;;;17.00;7.90;;;;;;;-128.00;-1.00;-1.00;18474;295;7504783;-34
2023/03/17 07:39:12;;;;;;;16.00;8.30;;;;;;;-128.00;-1.00;-1.00;18862;339;7506122;-34
2023/03/17 07:41:39;;;;;;;13.70;6.70;;;;;;;-128.00;-1.00;-1.00;18456;295;7505890;-31
2023/03/17 07:44:04;;;;;;;17.40;7.10;;;;;;;-128.00;-1.00;-1.00;18500;294;7504459;-31
2023/03/17 07:46:30;;;;;;;18.20;7.20;;;;;;;-128.00;-1.00;-1.00;18459;295;7504281;-34
2023/03/17 07:48:56;;;;;;;12.70;6.50;;;;;;;-128.00;-1.00;-1.00;18469;347;7504241;-30
2023/03/17 07:51:24;;;;;;;14.40;6.60;;;;;;;-128.00;-1.00;-1.00;18497;306;7504277;-32
2023/03/17 07:53:50;;;;;;;25.60;11.40;;;;;;;-128.00;-1.00;-1.00;18473;295;7504619;-31
2023/03/17 07:56:16;;;;;;;30.00;12.30;;;;;;;-128.00;-1.00;-1.00;18459;294;7504532;-35
2023/03/17 07:58:42;;;;;;;13.30;7.60;;;;;;;-128.00;-1.00;-1.00;18473;295;7505500;-31
2023/03/17 08:01:08;;;;;;;23.20;8.70;;;;;;;-128.00;-1.00;-1.00;18495;295;7506742;-30
2023/03/17 08:03:35;;;;;;;22.00;6.10;;;;;;;-128.00;-1.00;-1.00;18510;294;7504021;-34
2023/03/17 08:06:02;;;;;;;11.50;6.70;;;;;;;-128.00;-1.00;-1.00;18454;346;7504602;-33
2023/03/17 08:08:28;;;;;;;16.40;6.80;;;;;;;-128.00;-1.00;-1.00;18493;294;7504385;-33
2023/03/17 08:11:02;;;;;;;19.90;8.80;;;;;;;-128.00;-1.00;-1.00;18493;294;7504175;-35
2023/03/17 08:13:29;;;;;;;18.50;7.30;;;;;;;-128.00;-1.00;-1.00;18515;346;7504252;-33
2023/03/17 08:15:55;;;;;;;13.20;6.90;;;;;;;-128.00;-1.00;-1.00;18456;303;7505868;-33
2023/03/17 08:18:21;;;;;;;15.30;7.10;;;;;;;-128.00;-1.00;-1.00;18475;295;7505048;-37
2023/03/17 08:20:50;;;;;;;16.10;7.60;;;;;;;-128.00;-1.00;-1.00;20969;295;7504820;-31
2023/03/17 08:23:17;;;;;;;19.40;9.70;;;;;;;-128.00;-1.00;-1.00;18510;295;7504698;-32
2023/03/17 08:25:43;;;;;;;13.10;6.70;;;;;;;-128.00;-1.00;-1.00;18523;294;7504811;-35
2023/03/17 08:28:09;;;;;;;17.00;7.90;;;;;;;-128.00;-1.00;-1.00;18877;295;7504760;-36
2023/03/17 08:30:37;;;;;;;15.00;7.40;;;;;;;-128.00;-1.00;-1.00;18863;297;7506313;-32
2023/03/17 08:33:03;;;;;;;17.40;7.80;;;;;;;-128.00;-1.00;-1.00;18462;310;7504891;-32
2023/03/17 08:35:29;;;;;;;16.10;6.60;;;;;;;-128.00;-1.00;-1.00;18507;335;7506451;-32
2023/03/17 08:37:55;;;;;;;12.40;5.70;;;;;;;-128.00;-1.00;-1.00;18515;295;7504315;-36
2023/03/17 08:40:21;;;;;;;12.10;5.60;;;;;;;-128.00;-1.00;-1.00;18480;294;7504950;-35
2023/03/17 08:42:47;;;;;;;15.30;6.70;;;;;;;-128.00;-1.00;-1.00;18462;295;7505918;-34
2023/03/17 08:45:15;;;;;;;20.80;5.20;;;;;;;-128.00;-1.00;-1.00;20963;295;7504320;-35
2023/03/17 08:47:41;;;;;;;6.60;4.50;;;;;;;-128.00;-1.00;-1.00;18463;287;7506055;-31
2023/03/17 08:50:14;;;;;;;14.30;5.90;;;;;;;-128.00;-1.00;-1.00;18879;295;7506720;-31
2023/03/17 08:52:40;;;;;;;10.00;4.60;;;;;;;-128.00;-1.00;-1.00;18491;294;7506058;-34
2023/03/17 08:55:07;;;;;;;14.00;4.50;;;;;;;-128.00;-1.00;-1.00;18500;335;7505259;-32
2023/03/17 08:57:35;;;;;;;10.70;4.80;;;;;;;-128.00;-1.00;-1.00;18493;295;7505978;-36
2023/03/17 09:00:00;;;;;;;10.80;4.90;;;;;;;-128.00;-1.00;-1.00;18489;307;7505914;-36
2023/03/17 09:02:27;;;;;;;9.10;4.80;;;;;;;-128.00;-1.00;-1.00;18483;294;7504608;-35
2023/03/17 09:04:53;;;;;;;14.30;5.90;;;;;;;-128.00;-1.00;-1.00;18452;298;7505819;-36
2023/03/17 09:07:19;;;;;;;12.20;6.20;;;;;;;-128.00;-1.00;-1.00;18467;295;7504588;-36
2023/03/17 09:09:45;;;;;;;28.20;6.60;;;;;;;-128.00;-1.00;-1.00;18499;295;7505079;-35
2023/03/17 09:12:11;;;;;;;9.10;5.20;;;;;;;-128.00;-1.00;-1.00;18458;285;7504363;-32
2023/03/17 09:14:38;;;;;;;9.00;4.70;;;;;;;-128.00;-1.00;-1.00;18461;288;7504666;-29
2023/03/17 09:17:04;;;;;;;11.70;5.70;;;;;;;-128.00;-1.00;-1.00;18487;335;7504412;-34
2023/03/17 09:19:29;;;;;;;10.40;5.70;;;;;;;-128.00;-1.00;-1.00;18446;288;7504679;-34
2023/03/17 09:21:56;;;;;;;8.40;4.80;;;;;;;-128.00;-1.00;-1.00;18493;294;7506205;-31
2023/03/17 09:24:22;;;;;;;9.30;5.00;;;;;;;-128.00;-1.00;-1.00;18467;295;7505144;-31
2023/03/17 09:26:48;;;;;;;8.20;5.60;;;;;;;-128.00;-1.00;-1.00;18479;295;7505234;-34
2023/03/17 09:29:14;;;;;;;12.30;6.20;;;;;;;-128.00;-1.00;-1.00;18509;295;7504263;-34
2023/03/17 09:31:41;;;;;;;18.10;7.00;;;;;;;-128.00;-1.00;-1.00;18475;295;7504633;-32
2023/03/17 09:34:07;;;;;;;14.30;6.90;;;;;;;-128.00;-1.00;-1.00;18469;291;7505267;-31
2023/03/17 09:36:33;;;;;;;8.40;6.40;;;;;;;-128.00;-1.00;-1.00;18477;295;7504549;-34
2023/03/17 09:38:59;;;;;;;9.80;5.00;;;;;;;-128.00;-1.00;-1.00;18470;294;7506214;-35
2023/03/17 09:41:49;;;;;;;17.10;8.00;;;;;;;-128.00;-1.00;-1.00;18464;310;7504495;-34
2023/03/17 09:44:31;;;;;;;21.00;5.90;;;;;;;-128.00;-1.00;-1.00;18479;295;7505147;-35
2023/03/17 09:47:18;;;;;;;17.10;5.00;;;;;;;-128.00;-1.00;-1.00;18494;294;7504301;-35
2023/03/17 09:49:48;;;;;;;43.90;25.30;;;;;;;-128.00;-1.00;-1.00;18492;295;7504595;-32
2023/03/17 09:52:17;;;;;;;12.00;5.00;;;;;;;-128.00;-1.00;-1.00;18510;295;7504785;-31
2023/03/17 09:54:45;;;;;;;14.90;7.10;;;;;;;-128.00;-1.00;-1.00;18459;295;7504823;-35
2023/03/17 09:57:17;;;;;;;35.40;11.80;;;;;;;-128.00;-1.00;-1.00;18469;294;7506488;-30
2023/03/17 09:59:49;;;;;;;17.10;10.60;;;;;;;-128.00;-1.00;-1.00;18468;295;7505958;-34
2023/03/17 10:02:24;;;;;;;11.60;5.10;;;;;;;-128.00;-1.00;-1.00;18502;311;7504116;-34
2023/03/17 10:04:50;;;;;;;17.00;7.50;;;;;;;-128.00;-1.00;-1.00;18469;295;7504114;-35
2023/03/17 10:07:20;;;;;;;13.20;5.00;;;;;;;-128.00;-1.00;-1.00;18490;294;7504730;-34
2023/03/17 10:10:02;;;;;;;11.80;4.30;;;;;;;-128.00;-1.00;-1.00;18469;347;7504338;-31
2023/03/17 10:12:51;;;;;;;12.80;4.40;;;;;;;-128.00;-1.00;-1.00;18494;346;7505989;-35
2023/03/17 10:15:22;;;;;;;9.50;4.90;;;;;;;-128.00;-1.00;-1.00;18493;294;7504673;-34
2023/03/17 10:17:48;;;;;;;8.70;3.70;;;;;;;-128.00;-1.00;-1.00;18499;294;7504282;-34
2023/03/17 10:20:25;;;;;;;18.20;6.00;;;;;;;-128.00;-1.00;-1.00;18458;295;7504572;-30
2023/03/17 10:22:56;;;;;;;10.70;6.70;;;;;;;-128.00;-1.00;-1.00;18477;347;7506373;-34
2023/03/17 10:25:25;;;;;;;13.80;5.90;;;;;;;-128.00;-1.00;-1.00;18469;295;7504700;-31
2023/03/17 10:27:55;;;;;;;20.30;7.10;;;;;;;-128.00;-1.00;-1.00;18434;345;7505879;-31
2023/03/17 10:30:21;;;;;;;15.00;6.40;;;;;;;-128.00;-1.00;-1.00;18487;294;7504971;-35
2023/03/17 10:32:47;;;;;;;17.40;5.10;;;;;;;-128.00;-1.00;-1.00;18491;287;7505803;-34
2023/03/17 10:35:13;;;;;;;7.60;5.10;;;;;;;-128.00;-1.00;-1.00;18499;295;7505185;-34
2023/03/17 10:37:39;;;;;;;12.10;6.70;;;;;;;-128.00;-1.00;-1.00;18496;311;7506747;-31
2023/03/17 10:40:09;;;;;;;11.70;4.20;;;;;;;-128.00;-1.00;-1.00;18479;294;7504598;-36
2023/03/17 10:42:44;;;;;;;11.70;3.70;;;;;;;-128.00;-1.00;-1.00;18487;295;7504302;-36
2023/03/17 10:45:24;;;;;;;18.00;6.30;;;;;;;-128.00;-1.00;-1.00;18490;294;7504482;-31
2023/03/17 10:47:50;;;;;;;20.20;4.80;;;;;;;-128.00;-1.00;-1.00;18448;346;7504439;-31
2023/03/17 10:50:23;;;;;;;10.50;4.20;;;;;;;-128.00;-1.00;-1.00;18879;294;7504639;-35
2023/03/17 10:52:56;;;;;;;7.70;3.70;;;;;;;-128.00;-1.00;-1.00;18486;295;7504405;-31
2023/03/17 10:55:23;;;;;;;5.60;3.40;;;;;;;-128.00;-1.00;-1.00;18504;294;7505753;-35
2023/03/17 10:57:52;;;;;;;6.20;3.70;;;;;;;-128.00;-1.00;-1.00;18488;341;7505755;-34
2023/03/17 11:00:19;;;;;;;341.20;102.10;;;;;;;-128.00;-1.00;-1.00;18471;294;7504914;-30
2023/03/17 11:02:54;;;;;;;458.90;206.30;;;;;;;-128.00;-1.00;-1.00;18516;294;7506139;-30
2023/03/17 11:45:18;;;;;;;7.10;2.30;;;;;;;-100.05;5.81;19963.40;98215;296;1544507;-31
2023/03/17 11:47:55;;;;;;;8.30;3.20;;;;;;;-128.00;-1.00;-1.00;97617;296;1003476;-36
2023/03/17 11:50:29;;;;;;;5.60;3.50;;;;;;;-128.00;-1.00;-1.00;97900;285;1004007;-36
2023/03/17 11:53:09;;;;;;;5.30;3.20;;;;;;;-128.00;-1.00;-1.00;97844;296;1002304;-34
2023/03/17 11:55:48;;;;;;;8.20;3.50;;;;;;;-128.00;-1.00;-1.00;97814;296;1002884;-32
2023/03/17 11:58:38;;;;;;;5.00;2.20;;;;;;;-128.00;-1.00;-1.00;97806;297;1003942;-34
2023/03/17 12:01:08;;;;;;;5.90;3.10;;;;;;;-128.00;-1.00;-1.00;97871;285;1002338;-30
2023/03/17 12:03:44;;;;;;;14.10;2.70;;;;;;;-128.00;-1.00;-1.00;97849;296;1002853;-35
2023/03/17 12:06:20;;;;;;;5.60;3.30;;;;;;;-128.00;-1.00;-1.00;97914;285;1002501;-30
2023/03/17 12:08:51;;;;;;;7.20;2.60;;;;;;;-128.00;-1.00;-1.00;97786;297;1005044;-31
2023/03/17 12:11:22;;;;;;;10.80;3.20;;;;;;;-128.00;-1.00;-1.00;97845;285;1002623;-30
2023/03/17 12:13:51;;;;;;;3.50;2.10;;;;;;;-128.00;-1.00;-1.00;97820;285;1002390;-36
2023/03/17 12:16:21;;;;;;;6.00;2.30;;;;;;;-128.00;-1.00;-1.00;97831;297;1002557;-32
2023/03/17 12:18:55;;;;;;;3.90;2.50;;;;;;;-128.00;-1.00;-1.00;97773;298;1002856;-31
2023/03/17 12:21:26;;;;;;;4.80;2.70;;;;;;;-128.00;-1.00;-1.00;97869;285;1002946;-30
2023/03/17 12:24:00;;;;;;;7.80;3.70;;;;;;;-128.00;-1.00;-1.00;97858;285;1002903;-31
2023/03/17 12:26:35;;;;;;;4.50;3.00;;;;;;;-128.00;-1.00;-1.00;97858;285;1002092;-34
2023/03/17 12:29:19;;;;;;;8.00;3.70;;;;;;;-128.00;-1.00;-1.00;97910;285;1003253;-34
2023/03/17 12:31:47;;;;;;;5.90;3.40;;;;;;;-128.00;-1.00;-1.00;97936;285;1004138;-32
2023/03/17 12:34:25;;;;;;;4.30;2.60;;;;;;;-128.00;-1.00;-1.00;97882;285;1002322;-29
2023/03/17 12:36:51;;;;;;;7.20;2.60;;;;;;;-128.00;-1.00;-1.00;97789;296;1002820;-31
2023/03/17 12:39:30;;;;;;;5.30;2.50;;;;;;;-128.00;-1.00;-1.00;97796;285;1003196;-32